Terminal Aerodrome Forecast
Issued by NWS

Home | Current Version | Previous Version | Text Only | Print | Product List | Glossary On
Versions: 1 2 3 4 5 6 7 8 9 10 11 12 13
821
FTUS42 KGSP 281153
TAFAND
TAF
KAND 281153Z 2812/2912 08003KT P6SM FEW070
     FM281600 12006KT P6SM SCT060
     FM290300 VRB03KT P6SM BKN050=

USA.gov is the U.S. government's official web portal to all federal, state and local government web resources and services.